createdAt,value
2022-11-20T00:07:10.916Z,-6.53
2022-11-20T00:16:46.568Z,-6.7
2022-11-20T00:26:22.268Z,-6.74
2022-11-20T00:35:58.338Z,-6.82
2022-11-20T00:45:34.300Z,-6.95
2022-11-20T00:55:09.623Z,-6.95
2022-11-20T01:04:45.909Z,-7.01
2022-11-20T01:14:21.998Z,-6.82
2022-11-20T01:23:58.594Z,-6.81
2022-11-20T01:33:35.113Z,-6.77
2022-11-20T01:43:11.325Z,-6.75
2022-11-20T01:52:47.748Z,-6.76
2022-11-20T02:02:24.101Z,-6.86
2022-11-20T02:12:00.027Z,-6.88
2022-11-20T02:21:36.378Z,-6.95
2022-11-20T02:31:12.617Z,-6.9
2022-11-20T02:40:52.738Z,-6.96
2022-11-20T02:50:24.817Z,-7.15
2022-11-20T03:00:00.125Z,-7.37
2022-11-20T03:09:35.799Z,-7.57
2022-11-20T03:19:11.586Z,-7.69
2022-11-20T03:28:47.597Z,-7.92
2022-11-20T03:38:23.499Z,-8.01
2022-11-20T03:47:58.962Z,-8.18
2022-11-20T03:57:34.785Z,-8.26
2022-11-20T04:07:10.604Z,-8.52
2022-11-20T04:16:46.406Z,-8.7
2022-11-20T04:26:21.906Z,-9
2022-11-20T04:35:57.558Z,-9.09
2022-11-20T04:45:33.365Z,-9.23
2022-11-20T04:55:07.984Z,-9.38
2022-11-20T05:04:43.790Z,-9.47
2022-11-20T05:14:19.551Z,-9.61
2022-11-20T05:23:55.304Z,-9.66
2022-11-20T05:33:31.264Z,-9.75
2022-11-20T05:43:07.028Z,-9.84
2022-11-20T05:52:43.108Z,-9.84
2022-11-20T06:02:18.606Z,-9.98
2022-11-20T06:11:54.345Z,-9.9
2022-11-20T06:21:30.386Z,-9.95
2022-11-20T06:31:06.414Z,-9.9
2022-11-20T06:40:42.054Z,-9.95
2022-11-20T06:50:18.355Z,-9.81
2022-11-20T06:59:54.089Z,-9.86
2022-11-20T07:09:30.298Z,-9.81
2022-11-20T07:19:06.259Z,-9.62
2022-11-20T07:28:43.137Z,-9.06
2022-11-20T07:38:20.663Z,-8.29
2022-11-20T07:47:58.537Z,-7.71
2022-11-20T07:57:35.948Z,-7.14
2022-11-20T08:07:13.761Z,-6.88
2022-11-20T08:16:50.597Z,-6.38
2022-11-20T08:26:30.062Z,-5.38
2022-11-20T08:36:06.232Z,-5.23
2022-11-20T08:45:43.622Z,-5.35
2022-11-20T08:55:20.773Z,-4.68
2022-11-20T09:04:58.016Z,-4.46
2022-11-20T09:14:34.288Z,-4.45
2022-11-20T09:24:11.261Z,-3.98
2022-11-20T09:33:47.463Z,-3.97
2022-11-20T09:43:24.153Z,-3.83
2022-11-20T09:53:02.242Z,-3.7
2022-11-20T10:02:38.757Z,-3.46
2022-11-20T10:12:15.876Z,-3.03
2022-11-20T10:21:53.601Z,-3.12
2022-11-20T10:31:29.641Z,-3.04
2022-11-20T10:41:04.978Z,-2.96
2022-11-20T10:50:41.033Z,-2.73
2022-11-20T11:09:54.189Z,-2.46
2022-11-20T11:19:30.857Z,-2.62
2022-11-20T11:29:07.471Z,-2.58
2022-11-20T11:38:42.991Z,-2.54
2022-11-20T11:48:19.787Z,-2.51
2022-11-20T11:57:56.979Z,-2.07
2022-11-20T12:07:49.556Z,-2.06
2022-11-20T12:17:11.298Z,-1.65
2022-11-20T12:26:49.082Z,-1.27
2022-11-20T12:36:26.157Z,-1.47
2022-11-20T12:46:02.959Z,-1.34
2022-11-20T12:55:38.780Z,-1.24
2022-11-20T13:05:15.264Z,-1.42
2022-11-20T13:14:52.085Z,-1.32
2022-11-20T13:24:29.088Z,-1.23
2022-11-20T13:34:05.751Z,-0.84
2022-11-20T13:43:42.763Z,-0.92
2022-11-20T13:53:19.376Z,-0.76
2022-11-20T14:02:55.941Z,-0.79
2022-11-20T14:12:33.085Z,-0.81
2022-11-20T14:22:10.306Z,-0.81
2022-11-20T14:31:52.752Z,-1.07
2022-11-20T14:41:24.115Z,-1.27
2022-11-20T14:50:59.624Z,-1.43
2022-11-20T15:00:35.742Z,-1.54
2022-11-20T15:10:11.476Z,-1.73
2022-11-20T15:19:46.797Z,-2.2
2022-11-20T15:29:21.984Z,-2.71
2022-11-20T15:38:57.681Z,-2.89
2022-11-20T15:48:33.295Z,-3.21
2022-11-20T16:07:45.156Z,-3.48
2022-11-20T16:26:57.078Z,-3.74
2022-11-20T16:36:33.160Z,-3.82
2022-11-20T16:46:09.177Z,-4.13
2022-11-20T16:55:45.347Z,-4.25
2022-11-20T17:05:21.745Z,-4
2022-11-20T17:14:57.179Z,-3.85
2022-11-20T17:24:34.655Z,-3.3
2022-11-20T17:34:11.016Z,-3.29
2022-11-20T17:43:47.765Z,-3.08
2022-11-20T17:53:24.601Z,-2.93
2022-11-20T18:12:37.818Z,-2.82
2022-11-20T18:22:13.985Z,-2.74
2022-11-20T18:31:50.783Z,-2.67
2022-11-20T18:41:27.410Z,-2.54
2022-11-20T18:51:03.731Z,-2.5
2022-11-20T19:00:40.536Z,-2.48
2022-11-20T19:10:17.147Z,-2.34
2022-11-20T19:19:53.614Z,-2.24
2022-11-20T19:29:30.290Z,-2.13
2022-11-20T19:39:06.931Z,-2.11
2022-11-20T19:48:43.444Z,-2.04
2022-11-20T19:58:20.236Z,-2.07
2022-11-20T20:07:55.954Z,-1.95
2022-11-20T20:17:32.480Z,-1.92
2022-11-20T20:27:08.952Z,-1.78
2022-11-20T20:36:45.675Z,-1.7
2022-11-20T20:46:20.973Z,-1.68
2022-11-20T20:55:57.297Z,-1.71
2022-11-20T21:15:09.951Z,-1.77
2022-11-20T21:24:45.443Z,-1.89
2022-11-20T21:34:22.175Z,-1.92
2022-11-20T21:44:29.407Z,-1.92
2022-11-20T21:53:34.998Z,-1.86
2022-11-20T22:03:11.710Z,-1.81
2022-11-20T22:12:48.378Z,-1.73
2022-11-20T22:22:25.076Z,-1.54
2022-11-20T22:32:02.049Z,-1.37
2022-11-20T22:41:38.329Z,-1.22
2022-11-20T22:51:14.916Z,-1.31
2022-11-20T23:00:51.697Z,-1.29
2022-11-20T23:10:28.302Z,-1.19
2022-11-20T23:20:04.886Z,-1.17
2022-11-20T23:29:41.492Z,-1.12
2022-11-20T23:39:18.496Z,-1.09
2022-11-20T23:48:55.166Z,-1.02
2022-11-20T23:58:32.012Z,-1.08
